Latest Weather Observations for Mildura

IDN60801

Issued at 4:32 pm EST Monday 31 August 2015 (issued every 30 minutes, with the page automatically refreshed every 10 minutes)

About weather observations | Map of weather stations | Latest weather observations for NSW | Other Formats
Station Details ID: 076031 Name: MILDURA AIRPORT Lat: -34.24 Lon: 142.09 Height: 50.0 m
Data from the previous 72 hours. | See also: Recent months at Mildura
Date/Time
EST
Temp
°C
App
Temp
°C
Dew
Point
Rel
Hum
%
Delta-T
°C
Wind Press
QNH
hPa
Press
MSL
hPa
Rain
since 9 am
mm
Dir
 
Spd
km/h
Gust
km/h
Spd
kts
Gust
kts
31/04:30pm 18.3 14.3 0.4 30 7.9 WNW 11 20 6 11 1017.9 1017.9 0.0
31/04:00pm 18.1 13.8 0.7 31 7.7 WNW 13 22 7 12 1018.0 1018.0 0.0
31/03:30pm 17.5 14.1 -0.7 29 7.8 WSW 7 17 4 9 1018.2 1018.2 0.0
31/03:00pm 17.8 13.3 0.0 30 7.7 SW 13 24 7 13 1018.6 1018.6 0.0
31/02:30pm 17.7 13.4 1.2 33 7.3 WSW 13 19 7 10 1018.9 1018.9 0.0
31/02:00pm 17.4 13.2 1.4 34 7.1 WSW 13 20 7 11 1019.2 1019.2 0.0
31/01:30pm 17.4 14.3 1.4 34 7.1 WSW 7 15 4 8 1019.6 1019.6 0.0
31/01:00pm 16.2 11.5 0.7 35 6.7 WSW 15 22 8 12 1020.3 1020.3 0.0
31/12:30pm 15.9 12.0 1.2 37 6.4 WSW 11 17 6 9 1020.8 1020.8 0.0
31/12:00pm 15.6 11.5 2.1 40 6.0 W 13 19 7 10 1021.4 1021.4 0.0
31/11:30am 14.9 11.4 3.4 46 5.2 NW 11 19 6 10 1021.8 1021.8 0.0
31/11:00am 14.2 11.7 3.9 50 4.7 N 6 11 3 6 1022.0 1022.0 0.0
31/10:30am 13.6 11.8 5.3 57 3.9 NNE 4 9 2 5 1022.1 1022.1 0.0
31/10:00am 11.9 9.6 4.9 62 3.2 NE 6 9 3 5 1022.5 1022.5 0.0
31/09:30am 10.2 7.6 4.1 66 2.7 ENE 7 11 4 6 1022.5 1022.5 0.0
31/09:00am 8.4 5.4 4.0 74 1.9 ESE 9 11 5 6 1022.5 1022.5 0.0
31/08:30am 6.0 3.4 3.0 81 1.2 SSE 6 9 3 5 1022.4 1022.4 0.0
31/08:00am 3.1 0.7 2.1 93 0.4 S 4 7 2 4 1022.3 1022.3 0.0
31/07:30am 0.9 -2.1 0.5 97 0.1 S 6 7 3 4 1022.2 1022.2 0.0
31/07:00am 0.0 -3.4 -0.6 96 0.2 S 7 9 4 5 1022.0 1022.0 0.0
31/06:30am 0.0 -3.2 -0.6 96 0.2 S 6 7 3 4 1021.9 1021.9 0.0
31/06:00am 0.4 -2.9 -0.2 96 0.2 S 7 9 4 5 1021.6 1021.6 0.0
31/05:30am 0.5 -2.8 -0.2 95 0.3 S 7 9 4 5 1021.6 1021.6 0.0
31/05:00am 1.0 -2.1 0.1 94 0.3 S 6 7 3 4 1021.5 1021.5 0.0
31/04:30am 1.4 -1.9 0.4 93 0.4 S 7 9 4 5 1021.6 1021.6 0.0
31/04:00am 2.0 -1.2 0.7 91 0.5 S 7 9 4 5 1021.7 1021.7 0.0
31/03:30am 2.0 -1.6 0.4 89 0.6 SSE 9 9 5 5 1021.7 1021.7 0.0
31/03:00am 1.8 -1.5 0.2 89 0.6 S 7 9 4 5 1022.0 1022.0 0.0
31/02:30am 2.2 -1.0 0.7 90 0.6 SSW 7 9 4 5 1022.3 1022.3 0.0
31/02:00am 2.6 -0.6 0.8 88 0.7 SW 7 9 4 5 1022.6 1022.6 0.0
31/01:30am 2.6 -0.5 0.3 85 0.9 SW 6 7 3 4 1022.7 1022.7 0.0
31/01:00am 3.0 0.0 0.6 84 0.9 SW 6 6 3 3 1022.7 1022.7 0.0
31/12:30am 3.6 0.7 1.6 87 0.8 SW 6 7 3 4 1022.7 1022.7 0.0
31/12:00am 4.0 1.1 1.5 84 1.0 SW 6 6 3 3 1022.8 1022.8 0.0
 
Date/Time
EST
Temp
°C
App
Temp
°C
Dew
Point
Rel
Hum
%
Delta-T
°C
Wind Press
QNH
hPa
Press
MSL
hPa
Rain
since 9 am
mm
Dir
 
Spd
km/h
Gust
km/h
Spd
kts
Gust
kts
30/11:30pm 4.6 1.5 1.3 79 1.3 SW 7 7 4 4 1023.0 1023.0 0.0
30/11:00pm 4.8 1.7 1.3 78 1.4 SW 7 7 4 4 1023.3 1023.3 0.0
30/10:30pm 5.4 2.5 1.7 77 1.5 SSW 6 7 3 4 1023.4 1023.4 0.0
30/10:00pm 6.3 3.3 1.8 73 1.8 S 7 7 4 4 1023.4 1023.4 0.0
30/09:30pm 7.3 4.5 2.0 69 2.2 S 6 7 3 4 1023.4 1023.4 0.0
30/09:00pm 7.0 4.0 1.7 69 2.1 S 7 9 4 5 1023.4 1023.4 0.0
30/08:30pm 8.0 5.0 2.0 66 2.5 SSW 7 9 4 5 1023.3 1023.3 0.0
30/08:00pm 8.7 6.0 2.7 66 2.5 SSE 6 6 3 3 1023.1 1023.1 0.0
30/07:30pm 9.4 6.7 2.5 62 2.9 SSE 6 7 3 4 1022.9 1022.9 0.0
30/07:00pm 10.5 8.9 2.6 58 3.4 CALM 0 6 0 3 1022.7 1022.7 0.0
30/06:30pm 12.3 9.4 2.5 51 4.3 SE 7 9 4 5 1022.4 1022.4 0.0
30/06:00pm 14.1 11.1 2.0 44 5.3 SSE 7 11 4 6 1022.3 1022.3 0.0
30/05:30pm 15.8 12.3 1.2 37 6.4 S 9 17 5 9 1022.1 1022.1 0.0
30/05:00pm 16.4 12.5 1.3 36 6.6 SSW 11 20 6 11 1022.1 1022.1 0.0
30/04:30pm 16.3 12.0 0.8 35 6.8 S 13 24 7 13 1022.2 1022.2 0.0
30/04:00pm 16.6 12.7 1.1 35 6.8 SSE 11 22 6 12 1022.5 1022.5 0.0
30/03:30pm 16.4 12.8 0.9 35 6.8 SSE 9 17 5 9 1022.7 1022.7 0.0
30/03:00pm 16.8 12.9 1.3 35 6.8 SSE 11 19 6 10 1022.8 1022.8 0.0
30/02:30pm 16.4 12.7 2.1 38 6.4 S 11 20 6 11 1023.1 1023.1 0.0
30/02:00pm 15.8 11.5 1.2 37 6.4 S 13 19 7 10 1023.5 1023.5 0.0
30/01:30pm 14.9 11.2 2.1 42 5.7 SSW 11 19 6 10 1023.9 1023.9 0.0
30/01:00pm 14.4 10.7 2.6 45 5.2 SSW 11 20 6 11 1024.5 1024.5 0.0
30/12:30pm 14.3 10.3 2.9 46 5.1 SSE 13 22 7 12 1025.0 1025.0 0.0
30/12:00pm 13.7 9.7 2.6 47 4.9 S 13 20 7 11 1025.7 1025.7 0.0
30/11:30am 13.1 8.7 2.9 50 4.5 SSW 15 28 8 15 1026.3 1026.4 0.0
30/11:00am 12.3 9.1 3.3 54 4.0 SSW 9 17 5 9 1026.7 1026.8 0.0
30/10:30am 11.8 8.4 4.1 59 3.5 SSE 11 19 6 10 1027.0 1027.1 0.0
30/10:00am 10.7 7.3 4.2 64 2.9 SSE 11 17 6 9 1027.2 1027.3 0.0
30/09:30am 9.1 5.3 3.9 70 2.3 SSE 13 20 7 11 1027.2 1027.3 0.0
30/09:00am 7.9 4.4 3.6 74 1.8 SE 11 17 6 9 1027.1 1027.2 0.0
30/08:30am 5.1 2.1 1.9 80 1.3 S 7 13 4 7 1027.1 1027.2 0.0
30/08:00am 2.5 -1.1 0.4 86 0.8 S 9 11 5 6 1026.8 1026.9 0.0
30/07:30am 0.4 -3.5 -1.3 88 0.6 SSW 9 11 5 6 1026.7 1026.8 0.0
30/07:00am -0.5 -4.5 -2.1 89 0.5 SSW 9 11 5 6 1026.3 1026.4 0.0
30/06:30am -0.1 -4.1 -2.2 86 0.7 SSW 9 9 5 5 1026.1 1026.1 0.0
30/06:00am 0.3 -3.7 -1.9 85 0.8 SSW 9 11 5 6 1025.9 1025.9 0.0
30/05:30am 0.5 -3.5 -2.0 83 0.9 SSW 9 11 5 6 1026.0 1026.0 0.0
30/05:00am 1.0 -2.6 -2.1 80 1.1 SSW 7 9 4 5 1026.0 1026.0 0.0
30/04:30am 1.2 -2.7 -1.7 81 1.0 SSW 9 11 5 6 1025.9 1025.9 0.0
30/04:00am 1.2 -2.8 -1.9 80 1.1 SSW 9 11 5 6 1025.9 1025.9 0.0
30/03:30am 1.5 -2.9 -2.1 77 1.2 SSW 11 13 6 7 1026.1 1026.1 0.0
30/03:00am 1.8 -2.6 -2.1 75 1.3 SSW 11 15 6 8 1026.2 1026.3 0.0
30/02:30am 2.1 -1.9 -2.0 74 1.4 SSW 9 11 5 6 1026.4 1026.5 0.0
30/02:00am 2.7 -0.9 -2.2 70 1.7 S 7 9 4 5 1026.7 1026.8 0.0
30/01:30am 3.1 -0.6 -2.6 66 2.0 S 7 11 4 6 1026.8 1026.9 0.0
30/01:00am 3.0 -0.7 -2.9 65 2.0 S 7 9 4 5 1027.0 1027.1 0.0
30/12:30am 3.0 -0.7 -3.3 63 2.1 S 7 9 4 5 1027.0 1027.1 0.0
30/12:00am 3.3 -0.5 -3.5 61 2.3 S 7 9 4 5 1027.0 1027.1 0.0
 
Date/Time
EST
Temp
°C
App
Temp
°C
Dew
Point
Rel
Hum
%
Delta-T
°C
Wind Press
QNH
hPa
Press
MSL
hPa
Rain
since 9 am
mm
Dir
 
Spd
km/h
Gust
km/h
Spd
kts
Gust
kts
29/11:30pm 4.2 0.4 -3.5 57 2.7 S 7 11 4 6 1027.0 1027.1 0.0
29/11:00pm 4.2 0.0 -3.5 57 2.6 S 9 11 5 6 1027.1 1027.2 0.0
29/10:30pm 4.8 1.1 -3.2 56 2.8 S 7 9 4 5 1027.1 1027.2 0.0
29/10:00pm 5.6 1.5 -3.2 53 3.1 SSW 9 11 5 6 1027.0 1027.1 0.0
29/09:30pm 5.4 1.7 -2.7 56 2.9 S 7 9 4 5 1027.0 1027.1 0.0
29/09:00pm 6.5 2.9 -2.4 53 3.2 SSW 7 9 4 5 1026.8 1026.9 0.0
29/08:30pm 7.3 3.7 -2.2 51 3.5 S 7 9 4 5 1026.7 1026.8 0.0
29/08:00pm 8.2 4.3 -1.6 50 3.7 SSE 9 11 5 6 1026.3 1026.4 0.0
29/07:30pm 9.7 5.4 -1.3 46 4.3 SSE 11 13 6 7 1026.1 1026.1 0.0
29/07:00pm 10.2 6.3 -1.5 44 4.5 SSE 9 13 5 7 1025.9 1025.9 0.0
29/06:30pm 11.4 7.1 -1.4 41 5.1 SSE 11 17 6 9 1025.7 1025.7 0.0
29/06:00pm 12.7 8.0 -1.6 37 5.7 SSE 13 20 7 11 1025.5 1025.5 0.0
29/05:30pm 13.7 8.6 -1.9 34 6.2 SSE 15 20 8 11 1025.4 1025.4 0.0
29/05:00pm 14.7 9.7 -1.4 33 6.5 SSE 15 22 8 12 1025.3 1025.3 0.0
29/04:30pm 15.0 11.2 -1.1 33 6.7 S 9 17 5 9 1025.2 1025.2 0.0
29/04:00pm 14.5 9.6 -0.4 36 6.2 SSW 15 22 8 12 1025.4 1025.4 0.0
29/03:30pm 15.4 11.2 -0.8 33 6.8 SSW 11 24 6 13 1025.5 1025.5 0.0
29/03:00pm 14.9 10.4 -0.4 35 6.4 SSW 13 20 7 11 1025.6 1025.6 0.0
29/02:30pm 15.0 11.2 1.5 40 5.9 SSW 11 22 6 12 1025.7 1025.7 0.0
29/02:00pm 14.8 11.1 2.4 43 5.5 SE 11 19 6 10 1025.9 1025.9 0.0
29/01:30pm 14.2 11.4 3.4 48 4.9 SW 7 13 4 7 1026.3 1026.4 0.0
29/01:00pm 14.1 10.2 3.6 49 4.7 SE 13 17 7 9 1026.7 1026.8 0.0
29/12:30pm 13.5 10.8 3.6 51 4.5 S 7 17 4 9 1027.4 1027.5 0.0
29/12:00pm 13.7 10.3 4.0 52 4.4 S 11 20 6 11 1027.6 1027.7 0.0
29/11:30am 13.1 10.1 4.3 55 4.0 SE 9 17 5 9 1028.0 1028.1 0.0
29/11:00am 12.3 8.6 4.3 58 3.6 SE 13 20 7 11 1028.2 1028.3 0.0
29/10:30am 11.3 7.3 4.7 64 3.0 SE 15 22 8 12 1028.4 1028.5 0.0
29/10:00am 11.3 6.9 4.5 63 3.0 ESE 17 22 9 12 1028.5 1028.6 0.0
29/09:30am 9.9 4.5 4.7 70 2.3 SE 22 28 12 15 1028.6 1028.7 0.0
29/09:00am 8.9 3.5 4.3 73 2.0 SE 22 30 12 16 1028.4 1028.5 0.0
29/08:30am 6.6 2.8 4.1 84 1.1 SE 13 17 7 9 1028.2 1028.3 0.0
29/08:00am 5.6 2.8 3.1 84 1.0 S 7 11 4 6 1027.8 1027.9 0.0
29/07:30am 3.5 0.2 2.6 94 0.4 S 9 11 5 6 1027.5 1027.6 0.0
29/07:00am 2.4 -1.0 1.7 95 0.3 SSE 9 13 5 7 1027.2 1027.3 0.0
29/06:30am 3.4 -0.3 2.5 94 0.4 SSE 11 15 6 8 1026.9 1027.0 0.0
29/06:00am 3.2 -0.2 1.9 91 0.5 S 9 13 5 7 1026.7 1026.8 0.0
29/05:30am 3.2 -0.2 1.7 90 0.6 SSW 9 15 5 8 1026.6 1026.7 0.0
29/05:00am 3.2 -0.2 1.7 90 0.6 SW 9 13 5 7 1026.5 1026.6 0.0
29/04:30am 2.4 -1.1 1.4 93 0.4 WSW 9 11 5 6 1026.5 1026.6 0.0
29/04:00am 1.6 -1.4 0.7 94 0.3 W 6 7 3 4 1026.6 1026.7 0.0
29/03:30am 1.7 -1.3 0.7 93 0.4 WSW 6 7 3 4 1026.6 1026.7 0.0
29/03:00am 2.0 -0.2 0.8 92 0.4 SW 2 6 1 3 1026.8 1026.9 0.0
29/02:30am 2.6 -0.5 1.1 90 0.6 WSW 7 9 4 5 1026.8 1026.9 0.0
29/02:00am 2.9 -0.2 1.3 89 0.6 WSW 7 9 4 5 1027.0 1027.1 0.0
29/01:30am 3.1 0.0 1.5 89 0.6 SW 7 9 4 5 1027.0 1027.1 0.0
29/01:00am 3.2 1.5 1.6 89 0.6 CALM 0 0 0 0 1026.9 1027.0 0.0
29/12:30am 4.1 2.0 2.0 86 0.8 SW 2 6 1 3 1026.9 1027.0 0.0
29/12:00am 4.8 2.0 2.0 82 1.1 SSW 6 7 3 4 1026.9 1027.0 0.0
 
Date/Time
EST
Temp
°C
App
Temp
°C
Dew
Point
Rel
Hum
%
Delta-T
°C
Wind Press
QNH
hPa
Press
MSL
hPa
Rain
since 9 am
mm
Dir
 
Spd
km/h
Gust
km/h
Spd
kts
Gust
kts
28/11:30pm 5.6 2.3 2.3 79 1.3 SW 9 11 5 6 1026.9 1027.0 0.0
28/11:00pm 6.0 3.0 2.3 77 1.5 SW 7 9 4 5 1026.9 1027.0 0.0
28/10:30pm 6.6 3.7 2.5 75 1.7 SSW 7 11 4 6 1026.9 1027.0 0.0
28/10:00pm 7.2 4.3 2.7 73 1.9 SSE 7 9 4 5 1026.7 1026.8 0.0
28/09:30pm 8.3 5.1 2.8 68 2.3 S 9 11 5 6 1026.7 1026.8 0.0
28/09:00pm 8.5 5.6 2.5 66 2.5 S 7 9 4 5 1026.5 1026.6 0.0
28/08:30pm 9.6 6.7 2.7 62 2.9 S 7 9 4 5 1026.3 1026.4 0.0
28/08:00pm 9.6 6.8 2.9 63 2.9 SSW 7 9 4 5 1026.0 1026.0 0.0
28/07:30pm 9.1 6.5 3.3 67 2.5 SSW 6 9 3 5 1025.9 1025.9 0.0
28/07:00pm 10.2 8.8 3.5 63 2.9 CALM 0 0 0 0 1025.7 1025.7 0.0
28/06:30pm 12.2 10.1 3.7 56 3.8 SSE 4 7 2 4 1025.4 1025.4 0.0
28/06:00pm 13.9 11.4 3.7 50 4.6 S 6 7 3 4 1025.3 1025.3 0.0
28/05:30pm 14.9 11.3 3.1 45 5.3 SSE 11 17 6 9 1025.2 1025.2 0.0
28/05:00pm 16.1 12.5 3.2 42 5.9 SSW 11 17 6 9 1025.0 1025.0 0.0

Other Formats:

Comma delimited format used in spreadsheet applications
http://www.bom.gov.au/fwo/IDN60801/IDN60801.94693.axf

JavaScript Object Notation format (JSON) in row-major order
http://www.bom.gov.au/fwo/IDN60801/IDN60801.94693.json